Time;durP1;ratioP1;P1;durP2;ratioP2;P2;SDS_P1;SDS_P2;PMS_P1;PMS_P2;Temp;Humidity;BMP_temperature;BMP_pressure;BME280_temperature;BME280_humidity;BME280_pressure;Samples;Min_cycle;Max_cycle;Signal;HPM_P1;HPM_P2
2022/07/29 00:01:00;;;;;;;4.40;3.33;;;;;;;;;;1686283;84;21132;-63
2022/07/29 00:03:26;;;;;;;7.45;3.27;;;;;;;;;;1686758;85;21362;-64
2022/07/29 00:05:52;;;;;;;4.47;3.25;;;;;;;;;;1687080;85;21142;-63
2022/07/29 00:08:19;;;;;;;4.30;3.47;;;;;;;;;;1685698;84;21117;-63
2022/07/29 00:10:47;;;;;;;5.03;3.00;;;;;;;;;;1687117;84;21077;-63
2022/07/29 00:13:13;;;;;;;4.67;3.42;;;;;;;;;;1686813;84;21095;-63
2022/07/29 00:15:41;;;;;;;5.85;3.35;;;;;;;;;;1686816;85;21125;-63
2022/07/29 00:18:08;;;;;;;4.70;3.40;;;;;;;;;;1686840;84;21088;-63
2022/07/29 00:20:34;;;;;;;5.17;3.08;;;;;;;;;;1672566;84;21071;-63
2022/07/29 00:23:01;;;;;;;5.78;3.33;;;;;;;;;;1659158;86;21150;-63
2022/07/29 00:25:28;;;;;;;5.17;3.60;;;;;;;;;;1659397;86;21105;-63
2022/07/29 00:27:54;;;;;;;5.87;3.55;;;;;;;;;;1685447;84;21216;-63
2022/07/29 00:30:20;;;;;;;6.67;3.17;;;;;;;;;;1687695;84;21501;-63
2022/07/29 00:32:46;;;;;;;6.03;3.47;;;;;;;;;;1686811;85;21128;-63
2022/07/29 00:37:57;;;;;;;4.30;3.50;;;;;;;;;;1685676;84;21118;-63
2022/07/29 00:40:24;;;;;;;4.53;3.20;;;;;;;;;;1683643;85;21035;-62
2022/07/29 00:42:51;;;;;;;4.30;3.10;;;;;;;;;;1671955;84;21127;-62
2022/07/29 00:45:19;;;;;;;4.30;3.30;;;;;;;;;;1673780;85;21837;-63
2022/07/29 00:47:45;;;;;;;5.37;3.35;;;;;;;;;;1686358;85;21112;-62
2022/07/29 00:50:11;;;;;;;3.83;3.08;;;;;;;;;;1685483;84;21043;-62
2022/07/29 00:52:38;;;;;;;4.00;3.10;;;;;;;;;;1685231;85;21089;-62
2022/07/29 00:55:05;;;;;;;4.17;2.98;;;;;;;;;;1684938;85;21051;-62
2022/07/29 00:57:32;;;;;;;5.35;3.15;;;;;;;;;;1678273;85;21082;-62
2022/07/29 00:59:58;;;;;;;6.00;3.25;;;;;;;;;;1682995;84;21657;-62
2022/07/29 01:05:13;;;;;;;5.22;2.95;;;;;;;;;;1711525;83;21118;-63
2022/07/29 01:07:39;;;;;;;4.75;3.08;;;;;;;;;;1712592;84;21062;-63
2022/07/29 01:10:06;;;;;;;4.42;3.30;;;;;;;;;;1712383;84;21515;-63
2022/07/29 01:12:34;;;;;;;5.20;2.98;;;;;;;;;;1712664;84;21018;-62
2022/07/29 01:15:01;;;;;;;6.12;3.22;;;;;;;;;;1712431;84;21074;-63
2022/07/29 01:17:44;;;;;;;6.22;3.30;;;;;;;;;;1712692;84;21038;-63
2022/07/29 01:20:12;;;;;;;5.92;3.10;;;;;;;;;;1712411;84;21521;-62
2022/07/29 01:22:41;;;;;;;5.60;3.30;;;;;;;;;;1712659;84;21534;-62
2022/07/29 01:25:21;;;;;;;4.85;3.15;;;;;;;;;;1712415;84;21030;-62
2022/07/29 01:27:52;;;;;;;4.70;3.40;;;;;;;;;;1712062;83;21086;-63
2022/07/29 01:30:19;;;;;;;4.17;3.02;;;;;;;;;;1712158;83;21018;-63
2022/07/29 01:32:47;;;;;;;4.00;3.05;;;;;;;;;;1712242;84;21285;-63
2022/07/29 01:35:14;;;;;;;5.30;3.30;;;;;;;;;;1712543;84;21035;-63
2022/07/29 01:37:52;;;;;;;8.15;3.30;;;;;;;;;;1712288;84;21109;-63
2022/07/29 01:40:21;;;;;;;5.70;3.60;;;;;;;;;;1712505;84;21577;-62
2022/07/29 01:42:51;;;;;;;5.67;3.22;;;;;;;;;;1712261;84;21050;-62
2022/07/29 01:45:23;;;;;;;4.62;3.27;;;;;;;;;;1712652;84;21538;-62
2022/07/29 01:47:58;;;;;;;5.60;3.52;;;;;;;;;;1712333;84;21066;-61
2022/07/29 01:50:26;;;;;;;4.72;3.30;;;;;;;;;;1712472;84;21062;-62
2022/07/29 01:52:54;;;;;;;4.58;3.20;;;;;;;;;;1712309;84;21066;-62
2022/07/29 01:55:20;;;;;;;6.90;3.25;;;;;;;;;;1711469;83;21085;-62
2022/07/29 01:57:47;;;;;;;5.50;3.20;;;;;;;;;;1712252;84;21070;-62
2022/07/29 02:00:15;;;;;;;5.17;3.60;;;;;;;;;;1712412;84;21466;-62
2022/07/29 02:02:42;;;;;;;6.25;3.05;;;;;;;;;;1712702;82;21494;-63
2022/07/29 02:05:10;;;;;;;5.05;3.02;;;;;;;;;;1708845;83;21230;-63
2022/07/29 02:07:38;;;;;;;6.90;3.50;;;;;;;;;;1695550;84;21069;-63
2022/07/29 02:10:05;;;;;;;5.90;3.40;;;;;;;;;;1685995;84;21049;-62
2022/07/29 02:12:31;;;;;;;6.10;3.33;;;;;;;;;;1714260;82;21164;-62
2022/07/29 02:14:59;;;;;;;6.20;3.42;;;;;;;;;;1721379;81;21458;-63
2022/07/29 02:17:30;;;;;;;5.10;3.35;;;;;;;;;;1745075;82;21062;-63
2022/07/29 02:19:57;;;;;;;6.85;3.45;;;;;;;;;;1734248;81;21058;-62
2022/07/29 02:22:24;;;;;;;5.90;3.50;;;;;;;;;;1746305;82;21066;-62
2022/07/29 02:24:51;;;;;;;5.65;3.30;;;;;;;;;;1725229;82;21022;-63
2022/07/29 02:27:17;;;;;;;5.30;3.10;;;;;;;;;;1746393;82;21046;-63
2022/07/29 02:29:43;;;;;;;4.62;3.05;;;;;;;;;;1743095;82;21098;-63
2022/07/29 02:32:10;;;;;;;6.53;3.40;;;;;;;;;;1728133;82;21553;-63
2022/07/29 02:34:36;;;;;;;5.58;3.62;;;;;;;;;;1744302;81;21030;-63
2022/07/29 02:37:02;;;;;;;7.60;3.42;;;;;;;;;;1742365;82;21090;-63
2022/07/29 02:39:28;;;;;;;6.60;3.40;;;;;;;;;;1743452;81;21509;-63
2022/07/29 02:41:55;;;;;;;8.30;4.17;;;;;;;;;;1727954;82;21514;-63
2022/07/29 02:44:23;;;;;;;6.47;3.75;;;;;;;;;;1731303;82;21090;-63
2022/07/29 02:47:00;;;;;;;4.30;3.17;;;;;;;;;;1732378;82;22165;-63
2022/07/29 02:49:45;;;;;;;4.87;3.55;;;;;;;;;;1732651;82;21130;-63
2022/07/29 02:55:27;;;;;;;7.72;3.22;;;;;;;;;;1801247;78;24268;-63
2022/07/29 02:58:00;;;;;;;7.40;4.05;;;;;;;;;;1756614;81;21005;-64
2022/07/29 03:00:28;;;;;;;6.60;4.37;;;;;;;;;;1757620;81;21028;-63
2022/07/29 03:02:56;;;;;;;4.72;3.67;;;;;;;;;;1748688;82;21661;-63
2022/07/29 03:05:22;;;;;;;7.47;3.65;;;;;;;;;;1725697;81;21057;-63
2022/07/29 03:07:55;;;;;;;6.85;3.65;;;;;;;;;;1725276;82;21147;-63
2022/07/29 03:10:21;;;;;;;5.28;3.90;;;;;;;;;;1724946;83;21021;-63
2022/07/29 03:12:49;;;;;;;4.65;3.70;;;;;;;;;;1729781;82;21106;-63
2022/07/29 03:15:15;;;;;;;4.45;3.70;;;;;;;;;;1725653;81;21602;-63
2022/07/29 03:17:43;;;;;;;7.33;3.85;;;;;;;;;;1724757;81;21461;-63
2022/07/29 03:20:10;;;;;;;6.25;4.20;;;;;;;;;;1724019;82;21040;-63
2022/07/29 03:22:38;;;;;;;5.67;3.58;;;;;;;;;;1722316;82;21041;-63
2022/07/29 03:25:09;;;;;;;5.70;3.83;;;;;;;;;;1724083;83;21037;-63
2022/07/29 03:27:35;;;;;;;6.37;3.83;;;;;;;;;;1726127;81;21037;-63
2022/07/29 03:30:01;;;;;;;6.95;4.00;;;;;;;;;;1723509;82;21116;-64
2022/07/29 03:32:27;;;;;;;6.97;3.87;;;;;;;;;;1729524;83;21058;-63
2022/07/29 03:34:53;;;;;;;5.33;3.90;;;;;;;;;;1729369;83;21518;-63
2022/07/29 03:37:19;;;;;;;6.42;3.60;;;;;;;;;;1729968;83;21078;-64
2022/07/29 03:39:46;;;;;;;5.62;3.27;;;;;;;;;;1728667;82;21110;-63
2022/07/29 03:42:13;;;;;;;6.45;3.58;;;;;;;;;;1725140;81;21080;-64
2022/07/29 03:44:41;;;;;;;5.83;3.02;;;;;;;;;;1723846;83;21551;-64
2022/07/29 03:47:09;;;;;;;5.12;3.55;;;;;;;;;;1723867;83;21044;-64
2022/07/29 03:49:36;;;;;;;6.62;3.72;;;;;;;;;;1726516;82;21111;-63
2022/07/29 03:52:02;;;;;;;4.87;3.65;;;;;;;;;;1724755;82;21044;-64
2022/07/29 03:54:28;;;;;;;4.20;3.30;;;;;;;;;;1724237;83;21064;-63
2022/07/29 03:56:55;;;;;;;6.55;3.60;;;;;;;;;;1724519;81;20997;-63
2022/07/29 03:59:21;;;;;;;4.72;3.27;;;;;;;;;;1728482;81;21029;-63
2022/07/29 04:01:48;;;;;;;5.05;3.37;;;;;;;;;;1726872;82;21065;-63
2022/07/29 04:04:14;;;;;;;4.35;3.20;;;;;;;;;;1724323;82;21119;-61
2022/07/29 04:06:41;;;;;;;4.87;3.30;;;;;;;;;;1724449;82;21068;-63
2022/07/29 04:09:07;;;;;;;5.50;3.47;;;;;;;;;;1729419;83;21015;-64
2022/07/29 04:11:33;;;;;;;7.85;3.67;;;;;;;;;;1726837;83;21535;-63
2022/07/29 04:14:01;;;;;;;5.42;2.98;;;;;;;;;;1727653;81;21041;-64
2022/07/29 04:16:28;;;;;;;7.05;3.10;;;;;;;;;;1728205;82;21584;-63
2022/07/29 04:18:54;;;;;;;4.72;3.60;;;;;;;;;;1723980;83;21037;-63
2022/07/29 04:21:20;;;;;;;5.12;3.12;;;;;;;;;;1726572;82;21116;-63
2022/07/29 04:23:49;;;;;;;5.08;2.25;;;;;;;;;;1725294;81;21060;-63
2022/07/29 04:26:15;;;;;;;4.10;2.30;;;;;;;;;;1724016;82;21076;-63
2022/07/29 04:28:42;;;;;;;5.47;2.65;;;;;;;;;;1725528;81;21048;-65
2022/07/29 04:31:09;;;;;;;6.10;2.35;;;;;;;;;;1725970;81;22325;-64
2022/07/29 04:33:36;;;;;;;3.60;2.30;;;;;;;;;;1723677;83;21084;-63
2022/07/29 04:36:03;;;;;;;4.53;2.02;;;;;;;;;;1724278;82;21127;-63
2022/07/29 04:38:30;;;;;;;4.60;2.00;;;;;;;;;;1723802;83;21127;-64
2022/07/29 04:40:56;;;;;;;4.08;1.85;;;;;;;;;;1724181;83;21080;-64
2022/07/29 04:43:22;;;;;;;5.55;2.02;;;;;;;;;;1723775;83;21068;-64
2022/07/29 04:45:49;;;;;;;5.10;2.20;;;;;;;;;;1730397;81;21096;-63
2022/07/29 04:48:16;;;;;;;3.05;1.67;;;;;;;;;;1725316;82;21100;-64
2022/07/29 04:50:44;;;;;;;2.33;1.80;;;;;;;;;;1726973;81;21037;-64
2022/07/29 04:53:10;;;;;;;5.50;2.30;;;;;;;;;;1725424;81;21551;-64
2022/07/29 04:55:38;;;;;;;3.95;1.90;;;;;;;;;;1710240;83;21065;-62
2022/07/29 04:58:05;;;;;;;4.20;2.30;;;;;;;;;;1710797;82;21540;-63
2022/07/29 05:00:31;;;;;;;3.30;1.80;;;;;;;;;;1715904;82;20982;-64
2022/07/29 05:02:57;;;;;;;3.33;1.95;;;;;;;;;;1710501;82;21144;-64
2022/07/29 05:05:25;;;;;;;4.25;2.20;;;;;;;;;;1710687;84;21132;-64
2022/07/29 05:07:51;;;;;;;4.90;2.12;;;;;;;;;;1709995;82;21587;-64
2022/07/29 05:10:19;;;;;;;3.92;2.30;;;;;;;;;;1714284;83;21047;-63
2022/07/29 05:12:45;;;;;;;3.58;2.25;;;;;;;;;;1713617;83;21022;-64
2022/07/29 05:15:11;;;;;;;4.60;2.40;;;;;;;;;;1713712;82;21072;-63
2022/07/29 05:17:39;;;;;;;4.83;2.12;;;;;;;;;;1715491;82;21071;-64
2022/07/29 05:20:05;;;;;;;3.55;2.02;;;;;;;;;;1713831;83;21054;-64
2022/07/29 05:22:33;;;;;;;5.08;2.25;;;;;;;;;;1712632;83;21060;-63
2022/07/29 05:25:00;;;;;;;3.98;2.00;;;;;;;;;;1716761;83;21070;-64
2022/07/29 05:27:26;;;;;;;4.17;2.05;;;;;;;;;;1715140;82;21068;-64
2022/07/29 05:29:52;;;;;;;5.03;2.42;;;;;;;;;;1711772;82;21123;-65
2022/07/29 05:32:18;;;;;;;25.88;4.22;;;;;;;;;;1712814;82;21582;-64
2022/07/29 05:34:45;;;;;;;6.33;2.45;;;;;;;;;;1711548;82;21073;-63
2022/07/29 05:37:13;;;;;;;3.52;1.95;;;;;;;;;;1710774;82;21027;-63
2022/07/29 05:39:40;;;;;;;3.85;2.10;;;;;;;;;;1710859;84;21053;-64
2022/07/29 05:42:09;;;;;;;6.00;2.40;;;;;;;;;;1710559;84;21045;-64
2022/07/29 05:44:36;;;;;;;3.83;2.08;;;;;;;;;;1710518;84;21065;-64
2022/07/29 05:47:03;;;;;;;5.33;2.20;;;;;;;;;;1714560;82;20987;-64
2022/07/29 05:49:29;;;;;;;7.45;2.35;;;;;;;;;;1713308;82;20986;-64
2022/07/29 05:51:56;;;;;;;5.30;2.33;;;;;;;;;;1710208;83;21104;-62
2022/07/29 05:54:22;;;;;;;5.97;2.40;;;;;;;;;;1720154;83;21090;-62
2022/07/29 05:56:48;;;;;;;4.90;2.25;;;;;;;;;;1727926;83;21072;-63
2022/07/29 05:59:15;;;;;;;7.90;2.40;;;;;;;;;;1728028;81;21036;-64
2022/07/29 06:01:41;;;;;;;3.33;2.08;;;;;;;;;;1724258;80;21050;-65
2022/07/29 06:04:07;;;;;;;7.62;2.35;;;;;;;;;;1744180;81;22267;-65
2022/07/29 06:06:34;;;;;;;6.67;2.20;;;;;;;;;;1738781;81;21089;-63
2022/07/29 06:09:02;;;;;;;5.97;2.25;;;;;;;;;;1728184;81;21099;-63
2022/07/29 06:11:28;;;;;;;5.78;2.12;;;;;;;;;;1724285;81;21104;-63
2022/07/29 06:13:55;;;;;;;6.08;2.20;;;;;;;;;;1725123;81;21031;-64
2022/07/29 06:16:23;;;;;;;6.60;2.47;;;;;;;;;;1728536;82;21069;-64
2022/07/29 06:18:49;;;;;;;5.90;2.50;;;;;;;;;;1726197;82;21029;-64
2022/07/29 06:21:15;;;;;;;6.35;2.22;;;;;;;;;;1729082;83;21076;-64
2022/07/29 06:23:43;;;;;;;4.92;1.90;;;;;;;;;;1727824;82;21587;-64
2022/07/29 06:26:11;;;;;;;5.67;2.17;;;;;;;;;;1712923;83;21076;-64
2022/07/29 06:28:38;;;;;;;6.20;3.60;;;;;;;;;;1727312;82;21029;-63
2022/07/29 06:31:05;;;;;;;7.85;4.87;;;;;;;;;;1724686;82;21008;-63
2022/07/29 06:33:32;;;;;;;4.85;2.75;;;;;;;;;;1725140;82;21574;-64
2022/07/29 06:35:58;;;;;;;4.92;2.30;;;;;;;;;;1724539;81;21036;-63
2022/07/29 06:38:25;;;;;;;6.78;2.30;;;;;;;;;;1725158;82;21080;-64
2022/07/29 06:41:05;;;;;;;5.92;2.42;;;;;;;;;;1726309;82;21004;-64
2022/07/29 06:43:33;;;;;;;4.08;2.17;;;;;;;;;;1727003;82;21047;-64
2022/07/29 06:46:03;;;;;;;4.95;2.27;;;;;;;;;;1728453;82;20972;-64
2022/07/29 06:48:29;;;;;;;7.00;2.25;;;;;;;;;;1727008;82;21066;-64
2022/07/29 06:50:55;;;;;;;5.87;2.10;;;;;;;;;;1728462;81;21480;-72
2022/07/29 06:53:21;;;;;;;7.33;2.50;;;;;;;;;;1725818;82;21103;-71
2022/07/29 06:55:47;;;;;;;3.58;2.15;;;;;;;;;;1711725;82;21099;-70
2022/07/29 06:58:15;;;;;;;2.77;2.17;;;;;;;;;;1717830;82;21048;-69
2022/07/29 07:00:42;;;;;;;9.73;2.30;;;;;;;;;;1717390;82;21020;-69
2022/07/29 07:03:08;;;;;;;5.87;1.90;;;;;;;;;;1723829;80;21106;-68
2022/07/29 07:05:35;;;;;;;4.87;2.10;;;;;;;;;;1718338;82;21555;-70
2022/07/29 07:08:02;;;;;;;4.05;1.90;;;;;;;;;;1721122;82;21040;-71
2022/07/29 07:10:29;;;;;;;3.67;2.08;;;;;;;;;;1720584;82;21048;-70
2022/07/29 07:12:55;;;;;;;4.72;2.22;;;;;;;;;;1719974;83;21606;-69
2022/07/29 07:15:23;;;;;;;4.03;2.20;;;;;;;;;;1719251;82;21085;-71
2022/07/29 07:17:49;;;;;;;3.47;2.10;;;;;;;;;;1715504;83;21093;-69
2022/07/29 07:20:16;;;;;;;11.95;3.02;;;;;;;;;;1718438;82;21060;-69
2022/07/29 07:22:43;;;;;;;3.60;2.42;;;;;;;;;;1719869;83;21056;-68
2022/07/29 07:25:12;;;;;;;6.67;2.75;;;;;;;;;;1720086;82;21107;-68
2022/07/29 07:27:39;;;;;;;3.98;2.10;;;;;;;;;;1719512;83;21080;-68
2022/07/29 07:30:06;;;;;;;5.08;2.27;;;;;;;;;;1719184;82;21079;-66
2022/07/29 07:32:33;;;;;;;4.90;2.27;;;;;;;;;;1723345;82;21028;-66
2022/07/29 07:34:59;;;;;;;3.10;2.10;;;;;;;;;;1702098;82;21078;-67
2022/07/29 07:37:26;;;;;;;4.00;2.30;;;;;;;;;;1669796;86;21574;-66
2022/07/29 07:39:52;;;;;;;3.30;2.20;;;;;;;;;;1709089;82;21046;-64
2022/07/29 07:42:19;;;;;;;4.03;2.60;;;;;;;;;;1719151;82;21090;-62
2022/07/29 07:44:45;;;;;;;3.37;2.05;;;;;;;;;;1721997;82;21032;-63
2022/07/29 07:47:12;;;;;;;5.33;2.40;;;;;;;;;;1715318;82;21547;-64
2022/07/29 07:49:38;;;;;;;3.37;2.00;;;;;;;;;;1706541;82;21056;-64
2022/07/29 07:52:04;;;;;;;2.35;2.08;;;;;;;;;;1713025;82;21090;-64
2022/07/29 07:54:31;;;;;;;2.75;2.08;;;;;;;;;;1707197;82;21158;-65
2022/07/29 07:56:58;;;;;;;3.65;2.40;;;;;;;;;;1712794;82;21006;-64
2022/07/29 07:59:24;;;;;;;5.80;2.80;;;;;;;;;;1714613;82;21013;-63
2022/07/29 08:01:50;;;;;;;7.75;2.80;;;;;;;;;;1700789;82;21104;-64
2022/07/29 08:04:18;;;;;;;4.80;2.40;;;;;;;;;;1666242;84;21258;-63
2022/07/29 08:06:44;;;;;;;4.25;2.20;;;;;;;;;;1697707;83;21073;-64
2022/07/29 08:09:10;;;;;;;3.35;2.20;;;;;;;;;;1702914;82;21544;-63
2022/07/29 08:11:36;;;;;;;6.45;2.40;;;;;;;;;;1703284;82;21001;-63
2022/07/29 08:14:03;;;;;;;5.97;2.50;;;;;;;;;;1703574;82;21034;-62
2022/07/29 08:16:31;;;;;;;30.15;24.70;;;;;;;;;;1669896;84;21579;-67
2022/07/29 08:18:57;;;;;;;13.45;10.48;;;;;;;;;;1702819;82;22191;-70
2022/07/29 08:21:26;;;;;;;8.15;5.15;;;;;;;;;;1702157;82;21204;-68
2022/07/29 08:24:42;;;;;;;6.25;3.10;;;;;;;;;;1705535;82;21094;-70
2022/07/29 08:26:23;;;;;;;4.90;2.50;;;;;;;;;;1715150;82;21092;-68
2022/07/29 08:28:50;;;;;;;2.95;2.37;;;;;;;;;;1708236;82;20969;-69
2022/07/29 08:31:18;;;;;;;3.52;2.50;;;;;;;;;;1712047;82;21566;-69
2022/07/29 08:33:44;;;;;;;3.37;2.42;;;;;;;;;;1714726;82;21076;-68
2022/07/29 08:36:12;;;;;;;4.83;2.20;;;;;;;;;;1709760;82;21045;-69
2022/07/29 08:38:39;;;;;;;7.35;2.62;;;;;;;;;;1712139;82;21040;-69
2022/07/29 08:41:06;;;;;;;6.62;2.65;;;;;;;;;;1714955;82;21052;-68
2022/07/29 08:43:34;;;;;;;5.00;2.45;;;;;;;;;;1710090;82;21096;-67
2022/07/29 08:46:00;;;;;;;3.20;1.95;;;;;;;;;;1711676;82;21031;-70
2022/07/29 08:48:28;;;;;;;5.00;2.45;;;;;;;;;;1715077;82;21151;-69
2022/07/29 08:50:55;;;;;;;4.87;2.27;;;;;;;;;;1709624;82;22369;-68
2022/07/29 08:53:24;;;;;;;4.67;3.47;;;;;;;;;;1730584;82;20974;-69
2022/07/29 08:55:50;;;;;;;5.22;3.45;;;;;;;;;;1714366;82;20986;-67
2022/07/29 08:58:16;;;;;;;4.35;2.60;;;;;;;;;;1725702;82;21157;-69
2022/07/29 09:00:44;;;;;;;4.33;2.70;;;;;;;;;;1726234;80;21143;-69
2022/07/29 09:03:12;;;;;;;4.85;2.42;;;;;;;;;;1670908;85;21063;-69
2022/07/29 09:05:41;;;;;;;2.85;2.33;;;;;;;;;;1719567;82;21536;-70
2022/07/29 09:08:08;;;;;;;4.67;2.58;;;;;;;;;;1725853;82;21059;-68
2022/07/29 09:10:35;;;;;;;4.35;2.70;;;;;;;;;;1721160;82;21008;-68
2022/07/29 09:13:02;;;;;;;4.67;2.17;;;;;;;;;;1719748;82;21073;-68
2022/07/29 09:15:30;;;;;;;5.28;2.52;;;;;;;;;;1722884;82;21059;-70
2022/07/29 09:17:58;;;;;;;3.47;2.40;;;;;;;;;;1721824;83;21075;-69
2022/07/29 09:20:25;;;;;;;2.95;2.35;;;;;;;;;;1721476;82;21086;-69
2022/07/29 09:22:53;;;;;;;4.08;2.40;;;;;;;;;;1719949;82;21073;-69
2022/07/29 09:25:32;;;;;;;3.52;2.45;;;;;;;;;;1719932;82;20932;-70
2022/07/29 09:28:08;;;;;;;87.67;59.93;;;;;;;;;;1716426;83;21092;-68
2022/07/29 09:30:35;;;;;;;19.20;14.75;;;;;;;;;;1717142;82;21041;-67
2022/07/29 09:33:03;;;;;;;4.65;3.35;;;;;;;;;;1718918;82;21047;-70
2022/07/29 09:35:30;;;;;;;3.95;2.77;;;;;;;;;;1718844;82;21060;-69
2022/07/29 09:37:56;;;;;;;5.85;2.60;;;;;;;;;;1717928;82;21027;-69
2022/07/29 09:40:23;;;;;;;3.52;2.40;;;;;;;;;;1721541;82;22168;-69
2022/07/29 09:42:50;;;;;;;4.40;2.58;;;;;;;;;;1692808;85;21076;-69
2022/07/29 09:45:28;;;;;;;4.00;2.90;;;;;;;;;;1692666;85;21029;-69
2022/07/29 09:47:57;;;;;;;3.50;2.45;;;;;;;;;;1704993;82;21033;-70
2022/07/29 09:50:37;;;;;;;4.62;2.33;;;;;;;;;;1711840;82;21045;-69
2022/07/29 09:53:03;;;;;;;3.58;2.27;;;;;;;;;;1755004;82;21078;-68
2022/07/29 09:55:30;;;;;;;3.35;2.15;;;;;;;;;;1727789;82;21043;-68
2022/07/29 09:57:58;;;;;;;4.10;2.47;;;;;;;;;;1743574;82;21040;-69
2022/07/29 10:00:25;;;;;;;9.20;6.97;;;;;;;;;;1712468;82;21132;-68
2022/07/29 10:02:53;;;;;;;5.22;2.92;;;;;;;;;;1722343;82;21001;-69
2022/07/29 10:05:24;;;;;;;4.45;2.45;;;;;;;;;;1697277;82;21108;-69
2022/07/29 10:07:51;;;;;;;5.20;2.60;;;;;;;;;;1719698;82;22116;-69
2022/07/29 10:10:20;;;;;;;3.15;2.30;;;;;;;;;;1720096;82;21068;-68
2022/07/29 10:12:56;;;;;;;4.05;2.60;;;;;;;;;;1727891;82;21555;-68
2022/07/29 10:15:23;;;;;;;11.60;2.77;;;;;;;;;;1722721;82;21001;-68
2022/07/29 10:17:50;;;;;;;8.60;2.80;;;;;;;;;;1734687;83;21076;-68
2022/07/29 10:20:18;;;;;;;3.83;2.75;;;;;;;;;;1723432;82;21061;-68
2022/07/29 10:22:46;;;;;;;4.78;2.67;;;;;;;;;;1721619;83;21057;-69
2022/07/29 10:25:12;;;;;;;3.77;2.40;;;;;;;;;;1721758;83;21555;-68
2022/07/29 10:27:39;;;;;;;4.62;2.50;;;;;;;;;;1705112;83;21081;-69
2022/07/29 10:30:08;;;;;;;7.12;2.80;;;;;;;;;;1721522;83;21101;-69
2022/07/29 10:32:37;;;;;;;7.58;3.70;;;;;;;;;;1721939;82;21033;-63
2022/07/29 10:35:22;;;;;;;27.77;24.55;;;;;;;;;;1721666;82;21042;-63
2022/07/29 10:37:54;;;;;;;15.85;12.23;;;;;;;;;;1721376;82;21020;-67
2022/07/29 10:43:18;;;;;;;4.80;3.27;;;;;;;;;;1722216;82;21061;-64
2022/07/29 10:45:45;;;;;;;7.30;3.08;;;;;;;;;;1725241;82;21069;-64
2022/07/29 10:48:12;;;;;;;8.85;2.70;;;;;;;;;;1725105;82;21021;-65
2022/07/29 10:50:58;;;;;;;3.12;2.45;;;;;;;;;;1720824;82;21552;-65
2022/07/29 10:53:24;;;;;;;6.83;3.00;;;;;;;;;;1727480;82;21008;-64
2022/07/29 10:55:51;;;;;;;3.67;2.58;;;;;;;;;;1719716;82;21123;-64
2022/07/29 10:58:20;;;;;;;5.70;2.75;;;;;;;;;;1724292;83;21461;-64
2022/07/29 11:00:49;;;;;;;5.08;2.72;;;;;;;;;;1717615;83;21147;-64
2022/07/29 11:03:34;;;;;;;4.28;2.87;;;;;;;;;;1745312;81;21005;-64
2022/07/29 11:06:01;;;;;;;3.47;2.52;;;;;;;;;;1727796;81;21551;-65
2022/07/29 11:08:27;;;;;;;4.10;2.62;;;;;;;;;;1727932;81;21012;-66
2022/07/29 11:11:14;;;;;;;6.67;2.77;;;;;;;;;;1730846;82;21515;-66
2022/07/29 11:13:47;;;;;;;4.53;2.87;;;;;;;;;;1732252;82;21591;-65
2022/07/29 11:16:15;;;;;;;4.67;2.80;;;;;;;;;;1723688;81;21571;-69
2022/07/29 11:19:00;;;;;;;5.80;2.67;;;;;;;;;;1741114;81;21116;-69
2022/07/29 11:21:35;;;;;;;5.17;2.72;;;;;;;;;;1710525;81;20992;-68
2022/07/29 11:24:07;;;;;;;4.67;3.92;;;;;;;;;;1749560;81;21012;-68
2022/07/29 11:26:34;;;;;;;5.85;4.17;;;;;;;;;;1722138;82;21512;-68
2022/07/29 11:29:05;;;;;;;6.95;3.10;;;;;;;;;;1729197;83;21025;-67
2022/07/29 11:31:34;;;;;;;5.20;3.02;;;;;;;;;;1715036;81;21069;-69
2022/07/29 11:34:18;;;;;;;3.95;2.77;;;;;;;;;;1735620;82;21009;-67
2022/07/29 11:37:02;;;;;;;6.60;2.67;;;;;;;;;;1726378;83;21050;-69
2022/07/29 11:39:31;;;;;;;5.25;3.00;;;;;;;;;;1724507;82;21081;-68
2022/07/29 11:42:17;;;;;;;4.40;2.92;;;;;;;;;;1723704;82;21018;-68
2022/07/29 11:44:48;;;;;;;4.17;2.50;;;;;;;;;;1720233;81;21092;-68
2022/07/29 11:47:15;;;;;;;4.50;2.60;;;;;;;;;;1698990;82;21111;-69
2022/07/29 11:49:41;;;;;;;6.10;2.85;;;;;;;;;;1704385;83;21036;-68
2022/07/29 11:52:09;;;;;;;5.80;2.92;;;;;;;;;;1705221;83;21068;-68
2022/07/29 11:54:36;;;;;;;5.85;3.37;;;;;;;;;;1720661;82;21020;-66
2022/07/29 11:57:03;;;;;;;16.07;13.15;;;;;;;;;;1705681;82;21065;-67
2022/07/29 11:59:29;;;;;;;33.90;26.10;;;;;;;;;;1712046;82;21088;-70
2022/07/29 12:01:56;;;;;;;6.58;4.58;;;;;;;;;;1710189;83;22417;-69
2022/07/29 12:04:26;;;;;;;5.72;3.25;;;;;;;;;;1713685;83;20992;-68
2022/07/29 12:06:50;;;;;;;5.62;3.35;;;;;;;;;;1711052;82;21073;-68
2022/07/29 12:09:18;;;;;;;4.53;3.40;;;;;;;;;;1709919;82;20990;-67
2022/07/29 12:11:45;;;;;;;4.97;3.10;;;;;;;;;;1709684;83;21593;-67
2022/07/29 12:14:28;;;;;;;4.30;2.60;;;;;;;;;;1711836;82;21053;-68
2022/07/29 12:16:55;;;;;;;3.50;2.70;;;;;;;;;;1698179;83;21093;-69
2022/07/29 12:19:21;;;;;;;3.58;2.80;;;;;;;;;;1714509;82;21053;-63
2022/07/29 12:21:50;;;;;;;7.60;3.00;;;;;;;;;;1709398;82;21129;-64
2022/07/29 12:24:16;;;;;;;4.37;3.17;;;;;;;;;;1710548;83;21037;-63
2022/07/29 12:26:49;;;;;;;4.28;2.80;;;;;;;;;;1693906;83;21587;-68
2022/07/29 12:29:17;;;;;;;4.42;3.20;;;;;;;;;;1708938;82;21029;-69
2022/07/29 12:31:44;;;;;;;4.70;2.77;;;;;;;;;;1703374;82;22083;-70
2022/07/29 12:34:12;;;;;;;4.85;2.80;;;;;;;;;;1703137;82;21040;-69
2022/07/29 12:36:39;;;;;;;3.02;2.52;;;;;;;;;;1703591;82;22231;-68
2022/07/29 12:39:05;;;;;;;3.72;2.85;;;;;;;;;;1700665;83;21152;-69
2022/07/29 12:41:32;;;;;;;7.12;2.33;;;;;;;;;;1699584;83;21080;-68
2022/07/29 12:43:58;;;;;;;5.67;2.80;;;;;;;;;;1703487;82;21029;-69
2022/07/29 12:46:24;;;;;;;6.17;2.47;;;;;;;;;;1699992;82;21052;-69
2022/07/29 12:48:54;;;;;;;5.40;2.70;;;;;;;;;;1704870;83;21205;-70
2022/07/29 12:51:28;;;;;;;4.55;2.70;;;;;;;;;;1702512;82;21117;-69
2022/07/29 12:54:10;;;;;;;4.22;2.40;;;;;;;;;;1702279;82;21049;-67
2022/07/29 12:56:37;;;;;;;14.63;12.70;;;;;;;;;;1700748;82;21850;-67
2022/07/29 12:59:17;;;;;;;87.20;78.67;;;;;;;;;;1708653;82;21059;-69
2022/07/29 13:01:47;;;;;;;9.48;7.97;;;;;;;;;;1700380;82;21056;-68
2022/07/29 13:04:28;;;;;;;5.95;3.85;;;;;;;;;;1704947;83;22208;-66
2022/07/29 13:06:58;;;;;;;6.95;2.87;;;;;;;;;;1703859;82;21088;-66
2022/07/29 13:09:24;;;;;;;10.48;3.17;;;;;;;;;;1704262;82;21001;-66
2022/07/29 13:11:51;;;;;;;5.58;3.12;;;;;;;;;;1694592;82;21041;-66
2022/07/29 13:14:33;;;;;;;10.72;3.47;;;;;;;;;;1724073;82;20978;-65
2022/07/29 13:17:08;;;;;;;5.62;2.92;;;;;;;;;;1715122;82;21084;-66
2022/07/29 13:19:40;;;;;;;5.25;2.70;;;;;;;;;;1711100;82;21098;-66
2022/07/29 13:22:08;;;;;;;3.83;3.00;;;;;;;;;;1712276;82;21014;-68
2022/07/29 13:24:41;;;;;;;5.62;4.10;;;;;;;;;;1709706;82;21037;-65
2022/07/29 13:27:07;;;;;;;8.05;3.70;;;;;;;;;;1707163;82;21025;-66
2022/07/29 13:29:33;;;;;;;4.70;3.35;;;;;;;;;;1719748;82;20999;-67
2022/07/29 13:32:00;;;;;;;5.28;2.90;;;;;;;;;;1719228;82;21508;-66
2022/07/29 13:34:27;;;;;;;5.92;2.90;;;;;;;;;;1708844;82;22188;-66
2022/07/29 13:36:53;;;;;;;7.62;3.10;;;;;;;;;;1717863;82;21093;-66
2022/07/29 13:39:19;;;;;;;41.77;37.78;;;;;;;;;;1711528;83;20971;-65
2022/07/29 13:41:45;;;;;;;23.38;11.40;;;;;;;;;;1709225;82;21524;-64
2022/07/29 13:44:12;;;;;;;19.15;14.38;;;;;;;;;;1712489;82;21141;-66
2022/07/29 13:46:38;;;;;;;7.87;5.28;;;;;;;;;;1709840;82;21050;-66
2022/07/29 13:49:05;;;;;;;7.47;5.15;;;;;;;;;;1706992;82;21096;-67
2022/07/29 13:51:31;;;;;;;6.90;4.47;;;;;;;;;;1693959;82;21065;-67
2022/07/29 13:53:57;;;;;;;9.83;6.65;;;;;;;;;;1725739;82;21028;-70
2022/07/29 13:56:24;;;;;;;5.95;3.92;;;;;;;;;;1720823;81;21118;-69
2022/07/29 13:58:50;;;;;;;6.78;4.37;;;;;;;;;;1712185;82;21132;-69
2022/07/29 14:01:17;;;;;;;6.15;4.17;;;;;;;;;;1713987;82;21560;-68
2022/07/29 14:03:43;;;;;;;9.30;3.77;;;;;;;;;;1720019;82;21559;-68
2022/07/29 14:06:09;;;;;;;14.23;8.65;;;;;;;;;;1709202;82;21505;-69
2022/07/29 14:08:37;;;;;;;13.10;7.40;;;;;;;;;;1718697;82;21063;-68
2022/07/29 14:11:04;;;;;;;6.92;3.92;;;;;;;;;;1741964;82;21084;-68
2022/07/29 14:13:31;;;;;;;6.00;3.72;;;;;;;;;;1714509;82;21563;-69
2022/07/29 14:15:58;;;;;;;12.23;9.28;;;;;;;;;;1719361;82;21013;-69
2022/07/29 14:18:25;;;;;;;7.90;4.70;;;;;;;;;;1704445;82;21100;-69
2022/07/29 14:20:51;;;;;;;6.28;4.60;;;;;;;;;;1709220;82;21060;-68
2022/07/29 14:23:18;;;;;;;7.28;4.90;;;;;;;;;;1707880;82;21080;-69
2022/07/29 14:25:44;;;;;;;6.75;4.50;;;;;;;;;;1714515;82;21057;-69
2022/07/29 14:28:11;;;;;;;7.55;4.78;;;;;;;;;;1711674;82;21041;-68
2022/07/29 14:30:37;;;;;;;22.17;19.67;;;;;;;;;;1708589;82;21104;-68
2022/07/29 14:33:03;;;;;;;20.37;16.05;;;;;;;;;;1709177;82;20984;-68
2022/07/29 14:35:29;;;;;;;46.40;38.48;;;;;;;;;;1708771;83;21045;-67
2022/07/29 14:37:56;;;;;;;12.43;9.60;;;;;;;;;;1709681;82;21021;-65
2022/07/29 14:40:23;;;;;;;8.88;5.22;;;;;;;;;;1708464;82;22522;-64
2022/07/29 14:42:49;;;;;;;10.93;5.95;;;;;;;;;;1707695;83;21545;-64
2022/07/29 14:45:17;;;;;;;10.75;6.53;;;;;;;;;;1709061;82;21027;-64
2022/07/29 14:47:43;;;;;;;13.40;9.03;;;;;;;;;;1714385;82;21072;-64
2022/07/29 14:50:10;;;;;;;9.45;6.42;;;;;;;;;;1720869;82;21051;-65
2022/07/29 14:52:36;;;;;;;10.78;6.37;;;;;;;;;;1710528;82;21045;-64
2022/07/29 14:55:05;;;;;;;9.88;6.90;;;;;;;;;;1709766;82;21041;-62
2022/07/29 14:57:31;;;;;;;8.88;4.30;;;;;;;;;;1715380;82;21388;-63